createdAt,value
2019-05-15T00:00:58.845Z,3.26
2019-05-15T00:03:28.674Z,3.18
2019-05-15T00:05:55.505Z,3.90
2019-05-15T00:08:22.838Z,3.86
2019-05-15T00:10:50.152Z,2.93
2019-05-15T00:13:18.488Z,3.30
2019-05-15T00:15:48.129Z,3.31
2019-05-15T00:18:15.429Z,3.24
2019-05-15T00:20:42.823Z,3.39
2019-05-15T00:23:10.107Z,3.01
2019-05-15T00:25:39.501Z,2.99
2019-05-15T00:28:09.094Z,3.87
2019-05-15T00:30:38.479Z,3.69
2019-05-15T00:33:05.100Z,3.42
2019-05-15T00:35:32.417Z,3.33
2019-05-15T00:37:59.729Z,3.64
2019-05-15T00:40:28.863Z,3.03
2019-05-15T00:42:57.916Z,3.27
2019-05-15T00:45:27.769Z,3.40
2019-05-15T00:47:54.702Z,3.08
2019-05-15T00:50:22.049Z,3.07
2019-05-15T00:52:49.378Z,2.95
2019-05-15T00:55:18.861Z,2.89
2019-05-15T00:57:48.329Z,3.09
2019-05-15T01:00:21.446Z,3.09
2019-05-15T01:02:48.791Z,3.32
2019-05-15T01:05:18.509Z,3.24
2019-05-15T01:07:45.369Z,3.03
2019-05-15T01:10:12.807Z,3.41
2019-05-15T01:12:40.096Z,3.80
2019-05-15T01:15:09.210Z,3.33
2019-05-15T01:17:39.214Z,3.14
2019-05-15T01:20:08.513Z,2.89
2019-05-15T01:22:35.792Z,3.32
2019-05-15T01:25:03.178Z,3.49
2019-05-15T01:27:30.470Z,2.68
2019-05-15T01:29:58.229Z,3.35
2019-05-15T01:32:28.306Z,3.01
2019-05-15T01:34:55.117Z,3.29
2019-05-15T01:37:22.440Z,3.52
2019-05-15T01:39:49.757Z,3.55
2019-05-15T01:42:18.632Z,3.46
2019-05-15T01:44:48.236Z,3.28
2019-05-15T01:47:15.357Z,3.19
2019-05-15T01:49:42.658Z,3.57
2019-05-15T01:52:09.937Z,2.93
2019-05-15T01:54:38.351Z,3.33
2019-05-15T01:57:05.817Z,3.25
2019-05-15T01:59:33.109Z,2.90
2019-05-15T02:02:00.442Z,3.55
2019-05-15T02:04:29.005Z,3.40
2019-05-15T02:06:58.762Z,3.20
2019-05-15T02:09:27.918Z,3.51
2019-05-15T02:11:54.937Z,3.64
2019-05-15T02:14:22.258Z,3.48
2019-05-15T02:16:49.558Z,3.22
2019-05-15T02:19:19.204Z,3.55
2019-05-15T02:21:48.467Z,3.16
2019-05-15T02:24:15.318Z,3.38
2019-05-15T02:26:42.622Z,3.05
2019-05-15T02:29:13.143Z,2.87
2019-05-15T02:31:39.449Z,3.19
2019-05-15T02:34:10.082Z,2.93
2019-05-15T02:36:36.193Z,2.90
2019-05-15T02:39:08.687Z,2.82
2019-05-15T02:41:34.769Z,2.80
2019-05-15T02:44:02.077Z,3.02
2019-05-15T02:46:30.071Z,3.07
2019-05-15T02:48:59.219Z,3.07
2019-05-15T02:51:29.858Z,3.14
2019-05-15T02:53:58.597Z,3.25
2019-05-15T02:56:25.401Z,3.05
2019-05-15T02:58:52.682Z,3.30
2019-05-15T03:01:19.997Z,3.26
2019-05-15T03:03:49.654Z,2.92
2019-05-15T03:06:19.225Z,3.12
2019-05-15T03:08:49.254Z,3.47
2019-05-15T03:11:14.976Z,2.75
2019-05-15T03:13:42.252Z,3.00
2019-05-15T03:16:10.307Z,3.05
2019-05-15T03:18:39.739Z,3.35
2019-05-15T03:21:09.681Z,3.23
2019-05-15T03:23:40.037Z,3.40
2019-05-15T03:26:08.636Z,3.64
2019-05-15T03:28:34.889Z,3.04
2019-05-15T03:31:17.809Z,3.22
2019-05-15T03:33:36.361Z,3.55
2019-05-15T03:36:02.498Z,3.70
2019-05-15T03:38:30.269Z,3.70
2019-05-15T03:40:59.500Z,3.84
2019-05-15T03:43:29.306Z,3.44
2019-05-15T03:45:56.534Z,3.73
2019-05-15T03:48:23.855Z,3.58
2019-05-15T03:50:51.157Z,3.52
2019-05-15T03:53:19.420Z,3.11
2019-05-15T03:55:48.973Z,3.44
2019-05-15T03:58:20.898Z,3.19
2019-05-15T04:00:45.314Z,3.20
2019-05-15T04:03:12.612Z,2.87
2019-05-15T04:05:39.954Z,3.12
2019-05-15T04:08:10.407Z,3.15
2019-05-15T04:10:39.449Z,3.10
2019-05-15T04:13:09.066Z,3.26
2019-05-15T04:15:35.015Z,3.05
2019-05-15T04:18:02.348Z,3.28
2019-05-15T04:20:29.911Z,3.48
2019-05-15T04:23:00.342Z,3.08
2019-05-15T04:25:29.758Z,3.15
2019-05-15T04:27:58.828Z,3.13
2019-05-15T04:30:26.422Z,3.17
2019-05-15T04:32:53.743Z,3.40
2019-05-15T04:35:21.030Z,3.19
2019-05-15T04:37:49.457Z,3.40
2019-05-15T04:40:19.324Z,3.36
2019-05-15T04:42:49.592Z,3.21
2019-05-15T04:45:19.171Z,3.17
2019-05-15T04:47:45.074Z,3.17
2019-05-15T04:50:12.517Z,3.24
2019-05-15T04:52:43.345Z,3.47
2019-05-15T04:55:10.490Z,3.41
2019-05-15T04:57:40.154Z,3.76
2019-05-15T05:00:09.589Z,3.78
2019-05-15T05:02:39.868Z,4.00
2019-05-15T05:05:09.704Z,3.57
2019-05-15T05:07:38.696Z,3.71
2019-05-15T05:10:05.115Z,3.34
2019-05-15T05:12:32.438Z,2.95
2019-05-15T05:14:59.802Z,3.67
2019-05-15T05:17:28.822Z,3.85
2019-05-15T05:19:58.291Z,3.24
2019-05-15T05:22:28.089Z,3.18
2019-05-15T05:24:54.745Z,3.00
2019-05-15T05:27:22.038Z,3.36
2019-05-15T05:29:49.325Z,3.54
2019-05-15T05:32:30.519Z,3.60
2019-05-15T05:34:48.205Z,3.45
2019-05-15T05:37:15.008Z,3.47
2019-05-15T05:39:42.332Z,3.74
2019-05-15T05:42:09.669Z,3.54
2019-05-15T05:44:38.398Z,3.52
2019-05-15T05:47:09.120Z,3.51
2019-05-15T05:49:35.546Z,3.54
2019-05-15T05:52:02.860Z,3.47
2019-05-15T05:54:30.237Z,3.53
2019-05-15T05:56:58.597Z,3.64
2019-05-15T05:59:28.263Z,3.74
2019-05-15T06:01:55.285Z,3.63
2019-05-15T06:04:22.615Z,3.80
2019-05-15T06:07:06.002Z,3.56
2019-05-15T06:09:19.172Z,3.82
2019-05-15T06:11:48.673Z,3.69
2019-05-15T06:14:18.214Z,4.06
2019-05-15T06:16:45.309Z,4.20
2019-05-15T06:19:13.775Z,3.88
2019-05-15T06:21:53.830Z,4.10
2019-05-15T06:24:18.655Z,4.33
2019-05-15T06:26:48.349Z,4.32
2019-05-15T06:29:17.872Z,3.99
2019-05-15T06:31:49.570Z,3.93
2019-05-15T06:34:17.893Z,3.89
2019-05-15T06:36:45.324Z,4.22
2019-05-15T06:39:12.600Z,4.06
2019-05-15T06:41:39.916Z,4.14
2019-05-15T06:44:08.197Z,4.18
2019-05-15T06:46:35.484Z,4.43
2019-05-15T06:49:02.807Z,4.36
2019-05-15T06:51:30.088Z,4.14
2019-05-15T06:53:58.302Z,4.49
2019-05-15T06:56:28.194Z,4.54
2019-05-15T06:58:55.095Z,4.21
2019-05-15T07:01:22.371Z,4.41
2019-05-15T07:03:49.712Z,4.41
2019-05-15T07:06:18.155Z,4.71
2019-05-15T07:08:49.594Z,4.32
2019-05-15T07:11:18.919Z,4.36
2019-05-15T07:13:45.546Z,4.21
2019-05-15T07:16:12.849Z,4.23
2019-05-15T07:18:40.209Z,4.36
2019-05-15T07:21:10.330Z,4.29
2019-05-15T07:23:38.699Z,4.41
2019-05-15T07:26:06.010Z,4.80
2019-05-15T07:28:33.290Z,4.65
2019-05-15T07:31:11.246Z,4.67
2019-05-15T07:33:42.980Z,4.46
2019-05-15T07:36:04.929Z,4.49
2019-05-15T07:38:32.200Z,4.54
2019-05-15T07:41:04.118Z,4.68
2019-05-15T07:43:28.960Z,4.56
2019-05-15T07:45:58.798Z,4.37
2019-05-15T07:48:25.510Z,4.45
2019-05-15T07:50:52.768Z,4.62
2019-05-15T07:53:20.366Z,4.57
2019-05-15T07:55:50.235Z,4.85
2019-05-15T07:58:21.463Z,4.79
2019-05-15T08:00:46.111Z,4.57
2019-05-15T08:03:13.482Z,4.77
2019-05-15T08:05:55.035Z,4.76
2019-05-15T08:08:09.989Z,4.82
2019-05-15T08:10:39.679Z,4.73
2019-05-15T08:13:08.924Z,4.57
2019-05-15T08:15:37.971Z,4.75
2019-05-15T08:18:09.109Z,4.64
2019-05-15T08:20:34.197Z,4.80
2019-05-15T08:23:01.430Z,4.71
2019-05-15T08:25:35.152Z,4.56
2019-05-15T08:27:58.882Z,4.80
2019-05-15T08:30:28.754Z,4.73
2019-05-15T08:32:55.984Z,4.92
2019-05-15T08:35:23.254Z,5.06
2019-05-15T08:37:50.732Z,4.97
2019-05-15T08:40:18.853Z,5.14
2019-05-15T08:42:46.236Z,4.96
2019-05-15T08:45:15.490Z,5.13
2019-05-15T08:47:42.824Z,5.04
2019-05-15T08:50:13.676Z,4.99
2019-05-15T08:52:40.946Z,5.10
2019-05-15T08:55:08.762Z,5.08
2019-05-15T08:57:38.344Z,5.28
2019-05-15T09:00:05.503Z,5.02
2019-05-15T09:02:32.767Z,4.95
2019-05-15T09:05:00.091Z,5.45
2019-05-15T09:07:28.754Z,5.36
2019-05-15T09:09:58.078Z,5.07
2019-05-15T09:12:25.427Z,5.07
2019-05-15T09:14:52.662Z,5.11
2019-05-15T09:17:19.989Z,5.16
2019-05-15T09:19:48.172Z,5.29
2019-05-15T09:22:15.660Z,5.32
2019-05-15T09:24:43.001Z,5.40
2019-05-15T09:27:10.508Z,5.40
2019-05-15T09:29:38.165Z,5.33
2019-05-15T09:32:08.165Z,5.50
2019-05-15T09:34:49.920Z,5.66
2019-05-15T09:38:59.799Z,5.61
2019-05-15T09:39:52.308Z,5.52
2019-05-15T09:42:19.655Z,5.77
2019-05-15T09:44:48.596Z,5.84
2019-05-15T09:47:18.653Z,5.75
2019-05-15T09:49:45.363Z,5.78
2019-05-15T09:52:12.787Z,5.63
2019-05-15T09:54:40.112Z,5.81
2019-05-15T09:57:10.690Z,5.85
2019-05-15T09:59:38.944Z,5.97
2019-05-15T10:02:06.250Z,5.91
2019-05-15T10:04:34.930Z,5.85
2019-05-15T10:07:02.357Z,6.32
2019-05-15T10:09:29.792Z,5.98
2019-05-15T10:11:57.153Z,5.89
2019-05-15T10:14:25.389Z,5.95
2019-05-15T10:16:52.872Z,6.25
2019-05-15T10:19:20.330Z,6.15
2019-05-15T10:21:53.049Z,6.10
2019-05-15T10:24:18.291Z,6.12
2019-05-15T10:26:45.752Z,6.08
2019-05-15T10:29:13.238Z,6.13
2019-05-15T10:31:40.602Z,6.05
2019-05-15T10:34:09.152Z,6.00
2019-05-15T10:36:38.683Z,6.10
2019-05-15T10:39:08.385Z,5.96
2019-05-15T10:41:35.992Z,6.14
2019-05-15T10:44:03.754Z,6.60
2019-05-15T10:46:31.089Z,6.31
2019-05-15T10:48:58.745Z,6.53
2019-05-15T10:51:28.619Z,6.64
2019-05-15T10:53:55.531Z,6.48
2019-05-15T10:56:22.823Z,6.31
2019-05-15T10:58:51.248Z,6.74
2019-05-15T11:01:19.356Z,6.56
2019-05-15T11:03:49.277Z,6.61
2019-05-15T11:06:18.350Z,6.48
2019-05-15T11:08:45.524Z,6.51
2019-05-15T11:11:12.962Z,6.58
2019-05-15T11:13:40.304Z,6.63
2019-05-15T11:16:07.605Z,6.71
2019-05-15T11:18:34.962Z,6.81
2019-05-15T11:21:02.373Z,6.76
2019-05-15T11:23:29.704Z,6.64
2019-05-15T11:25:58.174Z,6.88
2019-05-15T11:28:31.516Z,6.79
2019-05-15T11:30:55.065Z,6.95
2019-05-15T11:33:22.369Z,6.78
2019-05-15T11:36:00.423Z,6.83
2019-05-15T11:38:19.609Z,7.02
2019-05-15T11:40:47.344Z,7.09
2019-05-15T11:43:14.703Z,7.02
2019-05-15T11:45:42.029Z,7.20
2019-05-15T11:48:09.400Z,7.20
2019-05-15T11:50:39.747Z,7.20
2019-05-15T11:53:08.489Z,7.46
2019-05-15T11:55:35.236Z,7.40
2019-05-15T11:58:02.792Z,7.46
2019-05-15T12:00:30.498Z,7.55
2019-05-15T12:02:58.554Z,7.41
2019-05-15T12:05:28.663Z,7.50
2019-05-15T12:07:57.782Z,7.38
2019-05-15T12:10:24.928Z,7.45
2019-05-15T12:12:52.453Z,7.72
2019-05-15T12:15:20.002Z,7.34
2019-05-15T12:17:48.508Z,7.60
2019-05-15T12:20:19.422Z,7.44
2019-05-15T12:22:48.345Z,7.67
2019-05-15T12:25:16.416Z,7.48
2019-05-15T12:27:43.794Z,7.38
2019-05-15T12:30:12.005Z,7.48
2019-05-15T12:32:40.446Z,7.42
2019-05-15T12:35:09.675Z,7.38
2019-05-15T12:37:39.764Z,7.74
2019-05-15T13:00:07.454Z,7.89
2019-05-15T13:02:35.097Z,7.79
2019-05-15T13:05:02.873Z,7.75
2019-05-15T13:07:30.209Z,7.24
2019-05-15T13:09:57.970Z,7.55
2019-05-15T13:12:25.831Z,7.37
2019-05-15T13:14:53.214Z,7.56
2019-05-15T13:17:20.594Z,7.46
2019-05-15T13:19:48.405Z,7.66
2019-05-15T13:22:18.905Z,7.43
2019-05-15T13:24:45.356Z,7.56
2019-05-15T13:27:12.744Z,7.52
2019-05-15T13:29:40.039Z,7.50
2019-05-15T13:32:08.059Z,7.62
2019-05-15T13:34:35.624Z,7.56
2019-05-15T13:37:03.010Z,7.19
2019-05-15T13:39:30.332Z,7.41
2019-05-15T13:41:58.444Z,7.42
2019-05-15T13:44:26.160Z,7.33
2019-05-15T13:46:53.538Z,7.24
2019-05-15T13:49:20.992Z,7.17
2019-05-15T13:51:49.021Z,7.30
2019-05-15T13:54:18.675Z,7.32
2019-05-15T13:56:45.839Z,7.51
2019-05-15T13:59:13.228Z,7.60
2019-05-15T14:01:40.583Z,7.39
2019-05-15T14:04:08.553Z,7.41
2019-05-15T14:06:38.035Z,7.49
2019-05-15T14:09:08.733Z,7.31
2019-05-15T14:11:38.805Z,7.30
2019-05-15T14:14:05.764Z,7.47
2019-05-15T14:16:33.189Z,7.28
2019-05-15T14:19:00.614Z,7.26
2019-05-15T14:21:29.040Z,7.20
2019-05-15T14:23:59.744Z,7.22
2019-05-15T14:26:25.763Z,7.11
2019-05-15T14:28:53.173Z,7.06
2019-05-15T14:31:20.627Z,7.24
2019-05-15T14:33:48.771Z,7.10
2019-05-15T14:36:18.491Z,7.22
2019-05-15T14:38:45.656Z,7.14
2019-05-15T14:41:14.525Z,7.13
2019-05-15T14:43:42.581Z,7.09
2019-05-15T14:46:09.992Z,7.21
2019-05-15T14:48:38.604Z,7.08
2019-05-15T14:51:08.555Z,7.07
2019-05-15T14:53:38.385Z,7.06
2019-05-15T14:56:08.554Z,7.01
2019-05-15T14:58:35.564Z,7.11
2019-05-15T15:01:04.649Z,7.15
2019-05-15T15:03:32.855Z,7.19
2019-05-15T15:06:01.880Z,7.00
2019-05-15T15:08:32.243Z,7.11
2019-05-15T15:11:02.673Z,7.08
2019-05-15T15:13:30.305Z,6.94
2019-05-15T15:15:59.060Z,7.05
2019-05-15T15:18:28.074Z,7.11
2019-05-15T15:20:57.866Z,7.16
2019-05-15T15:23:25.102Z,6.99
2019-05-15T15:25:52.533Z,7.02
2019-05-15T15:28:19.854Z,6.96
2019-05-15T15:30:48.608Z,7.18
2019-05-15T15:33:16.178Z,7.10
2019-05-15T15:35:43.650Z,7.02
2019-05-15T15:38:13.482Z,7.07
2019-05-15T15:40:40.288Z,7.23
2019-05-15T15:43:08.942Z,7.24
2019-05-15T15:45:39.137Z,7.24
2019-05-15T15:48:08.422Z,7.05
2019-05-15T15:50:38.111Z,7.15
2019-05-15T15:53:05.031Z,7.15
2019-05-15T15:55:32.389Z,7.18
2019-05-15T15:57:59.720Z,7.13
2019-05-15T16:00:28.824Z,7.41
2019-05-15T16:02:56.535Z,7.36
2019-05-15T16:05:23.891Z,7.22
2019-05-15T16:07:51.317Z,7.13
2019-05-15T16:10:19.144Z,7.03
2019-05-15T16:12:49.039Z,7.09
2019-05-15T16:15:18.048Z,6.95
2019-05-15T16:17:45.885Z,6.82
2019-05-15T16:20:14.619Z,6.87
2019-05-15T16:22:43.204Z,6.99
2019-05-15T16:25:11.081Z,6.83
2019-05-15T16:27:38.567Z,6.93
2019-05-15T16:30:08.315Z,6.99
2019-05-15T16:32:39.023Z,7.16
2019-05-15T16:35:08.257Z,6.98
2019-05-15T16:37:38.454Z,6.96
2019-05-15T16:40:05.461Z,6.95
2019-05-15T16:42:33.360Z,7.06
2019-05-15T16:45:00.789Z,6.89
2019-05-15T16:47:28.296Z,6.93
2019-05-15T16:49:58.008Z,6.85
2019-05-15T16:52:30.503Z,6.96
2019-05-15T16:54:58.097Z,6.93
2019-05-15T16:57:25.775Z,6.85
2019-05-15T16:59:55.193Z,6.83
2019-05-15T17:02:22.695Z,6.81
2019-05-15T17:04:50.413Z,6.71
2019-05-15T17:07:18.317Z,6.74
2019-05-15T17:09:47.967Z,6.73
2019-05-15T17:12:16.487Z,6.67
2019-05-15T17:14:44.195Z,6.73
2019-05-15T17:17:11.593Z,6.67
2019-05-15T17:19:39.367Z,6.56
2019-05-15T17:22:11.005Z,6.75
2019-05-15T17:24:39.038Z,6.54
2019-05-15T17:27:10.333Z,6.61
2019-05-15T17:29:38.542Z,6.66
2019-05-15T17:32:08.524Z,6.63
2019-05-15T17:34:37.994Z,6.60
2019-05-15T17:37:06.240Z,6.58
2019-05-15T17:39:38.194Z,6.52
2019-05-15T17:42:04.612Z,6.57
2019-05-15T17:44:33.650Z,6.51
2019-05-15T17:47:01.208Z,6.39
2019-05-15T17:49:30.990Z,6.53
2019-05-15T17:52:01.179Z,6.53
2019-05-15T17:54:30.093Z,6.51
2019-05-15T17:56:58.696Z,6.43
2019-05-15T17:59:30.681Z,6.41
2019-05-15T18:01:59.712Z,6.49
2019-05-15T18:04:34.463Z,6.43
2019-05-15T18:07:05.019Z,6.48
2019-05-15T18:09:33.113Z,6.30
2019-05-15T18:12:10.846Z,6.20
2019-05-15T18:14:42.322Z,6.28
2019-05-15T18:17:55.294Z,6.26
2019-05-15T18:20:38.346Z,6.20
2019-05-15T18:23:13.361Z,6.23
2019-05-15T18:25:42.611Z,6.22
2019-05-15T18:28:10.447Z,6.19
2019-05-15T18:30:39.157Z,6.12
2019-05-15T18:33:08.629Z,6.18
2019-05-15T18:35:38.452Z,6.12
2019-05-15T18:38:08.606Z,6.15
2019-05-15T18:40:38.396Z,6.12
2019-05-15T18:43:06.061Z,6.20
2019-05-15T18:45:41.153Z,6.17
2019-05-15T18:48:11.131Z,6.13
2019-05-15T18:50:41.288Z,6.07
2019-05-15T18:53:09.145Z,6.05
2019-05-15T18:55:38.734Z,5.97
2019-05-15T18:58:08.859Z,6.17
2019-05-15T19:00:43.239Z,6.07
2019-05-15T19:03:19.496Z,6.06
2019-05-15T19:05:42.617Z,6.04
2019-05-15T19:08:13.043Z,5.95
2019-05-15T19:10:43.953Z,6.16
2019-05-15T19:13:14.737Z,5.94
2019-05-15T19:15:48.352Z,5.99
2019-05-15T19:18:18.525Z,5.86
2019-05-15T19:20:48.520Z,6.04
2019-05-15T19:23:19.398Z,5.96
2019-05-15T19:25:48.458Z,5.91
2019-05-15T19:28:18.741Z,6.01
2019-05-15T19:30:48.294Z,5.85
2019-05-15T19:33:33.274Z,5.96
2019-05-15T19:35:50.225Z,5.92
2019-05-15T19:38:19.981Z,5.86
2019-05-15T19:40:52.190Z,5.82
2019-05-15T19:43:20.961Z,6.10
2019-05-15T19:45:48.831Z,5.86
2019-05-15T19:48:20.250Z,5.67
2019-05-15T19:53:37.160Z,6.00
2019-05-15T19:56:08.451Z,5.75
2019-05-15T19:58:36.696Z,5.92
2019-05-15T20:01:08.117Z,5.97
2019-05-15T20:03:47.258Z,6.03
2019-05-15T20:06:07.910Z,5.69
2019-05-15T20:08:38.655Z,5.95
2019-05-15T20:11:10.508Z,5.95
2019-05-15T20:13:39.579Z,5.72
2019-05-15T20:16:11.727Z,5.64
2019-05-15T20:18:40.177Z,5.81
2019-05-15T20:21:15.084Z,6.20
2019-05-15T20:23:43.134Z,6.07
2019-05-15T20:26:17.824Z,5.71
2019-05-15T20:28:44.795Z,5.93
2019-05-15T20:31:12.594Z,5.89
2019-05-15T20:33:40.099Z,5.85
2019-05-15T20:36:09.227Z,5.86
2019-05-15T20:38:39.772Z,6.09
2019-05-15T20:41:08.352Z,5.85
2019-05-15T20:43:39.706Z,5.92
2019-05-15T20:46:08.552Z,6.00
2019-05-15T20:48:38.224Z,5.84
2019-05-15T20:51:06.279Z,5.86
2019-05-15T20:53:33.669Z,5.81
2019-05-15T20:56:01.032Z,6.05
2019-05-15T20:58:28.523Z,5.97
2019-05-15T21:00:58.848Z,5.77
2019-05-15T21:03:26.268Z,5.80
2019-05-15T21:05:53.670Z,5.66
2019-05-15T21:08:21.069Z,5.80
2019-05-15T21:10:49.215Z,6.19
2019-05-15T21:13:16.954Z,6.25
2019-05-15T21:15:44.329Z,5.88
2019-05-15T21:18:15.152Z,5.90
2019-05-15T21:20:41.016Z,5.76
2019-05-15T21:23:09.108Z,5.85
2019-05-15T21:25:38.801Z,6.07
2019-05-15T21:28:08.238Z,5.75
2019-05-15T21:30:35.091Z,5.69
2019-05-15T21:33:02.565Z,5.94
2019-05-15T21:35:30.602Z,5.66
2019-05-15T21:37:58.110Z,5.66
2019-05-15T21:40:27.596Z,5.84
2019-05-15T21:42:54.923Z,5.70
2019-05-15T21:45:22.234Z,5.70
2019-05-15T21:47:49.549Z,5.57
2019-05-15T21:50:19.326Z,5.50
2019-05-15T21:52:49.108Z,5.53
2019-05-15T21:55:18.275Z,5.62
2019-05-15T21:57:44.869Z,5.82
2019-05-15T22:00:21.850Z,5.68
2019-05-15T22:02:49.549Z,5.45
2019-05-15T22:05:18.967Z,5.56
2019-05-15T22:07:47.892Z,5.55
2019-05-15T22:10:16.035Z,5.82
2019-05-15T22:12:43.429Z,5.63
2019-05-15T22:15:11.073Z,5.94
2019-05-15T22:17:39.044Z,5.61
2019-05-15T22:20:08.676Z,5.94
2019-05-15T22:22:36.351Z,5.96
2019-05-15T22:25:04.719Z,5.59
2019-05-15T22:27:32.039Z,5.46
2019-05-15T22:29:59.303Z,5.45
2019-05-15T22:32:29.045Z,5.99
2019-05-15T22:35:06.944Z,5.55
2019-05-15T22:37:25.111Z,5.60
2019-05-15T22:39:52.449Z,5.86
2019-05-15T22:42:19.769Z,5.79
2019-05-15T22:44:47.828Z,5.42
2019-05-15T22:47:17.902Z,5.87
2019-05-15T22:49:44.503Z,5.55
2019-05-15T22:52:11.803Z,5.56
2019-05-15T22:54:39.583Z,5.61
2019-05-15T22:57:06.902Z,5.82
2019-05-15T22:59:34.230Z,5.65
2019-05-15T23:02:01.599Z,5.47
2019-05-15T23:04:28.929Z,5.75
2019-05-15T23:06:56.290Z,5.68
2019-05-15T23:09:23.633Z,5.71
2019-05-15T23:11:50.941Z,5.53
2019-05-15T23:14:18.570Z,5.32
2019-05-15T23:16:48.151Z,5.25
2019-05-15T23:19:15.133Z,5.45
2019-05-15T23:21:42.450Z,5.33
2019-05-15T23:24:09.800Z,5.61
2019-05-15T23:26:38.760Z,5.50
2019-05-15T23:29:07.963Z,5.53
2019-05-15T23:31:35.558Z,5.46
2019-05-15T23:34:02.854Z,5.70
2019-05-15T23:36:30.163Z,5.77
2019-05-15T23:38:58.439Z,5.74
2019-05-15T23:41:28.092Z,5.94
2019-05-15T23:43:55.249Z,5.78
2019-05-15T23:46:22.585Z,5.62
2019-05-15T23:48:49.883Z,5.64
2019-05-15T23:51:18.957Z,5.77
2019-05-15T23:53:48.284Z,5.50
2019-05-15T23:56:18.635Z,5.60
2019-05-15T23:58:44.910Z,5.46
